sensor_id;sensor_type;location;lat;lon;timestamp;temperature;humidity
55213;DHT22;41083;52.932;6.674;2024-01-30T00:01:22;6.90;99.90
55213;DHT22;41083;52.932;6.674;2024-01-30T00:03:47;6.90;99.90
55213;DHT22;41083;52.932;6.674;2024-01-30T00:06:13;6.90;99.90
55213;DHT22;41083;52.932;6.674;2024-01-30T00:08:39;6.90;99.90
55213;DHT22;41083;52.932;6.674;2024-01-30T00:11:04;6.90;99.90
55213;DHT22;41083;52.932;6.674;2024-01-30T00:13:30;6.90;99.90
55213;DHT22;41083;52.932;6.674;2024-01-30T00:15:56;6.90;99.90
55213;DHT22;41083;52.932;6.674;2024-01-30T00:18:21;6.90;99.90
55213;DHT22;41083;52.932;6.674;2024-01-30T00:20:47;6.90;99.90
55213;DHT22;41083;52.932;6.674;2024-01-30T00:23:13;6.90;99.90
55213;DHT22;41083;52.932;6.674;2024-01-30T00:25:38;6.90;99.90
55213;DHT22;41083;52.932;6.674;2024-01-30T00:28:04;7.00;99.90
55213;DHT22;41083;52.932;6.674;2024-01-30T00:30:30;6.90;99.90
55213;DHT22;41083;52.932;6.674;2024-01-30T00:32:55;7.00;99.90
55213;DHT22;41083;52.932;6.674;2024-01-30T00:35:21;7.00;99.90
55213;DHT22;41083;52.932;6.674;2024-01-30T00:37:48;7.00;99.90
55213;DHT22;41083;52.932;6.674;2024-01-30T00:40:14;7.00;99.90
55213;DHT22;41083;52.932;6.674;2024-01-30T00:42:44;7.00;99.90
55213;DHT22;41083;52.932;6.674;2024-01-30T00:45:14;7.00;99.90
55213;DHT22;41083;52.932;6.674;2024-01-30T00:47:40;7.00;99.90
55213;DHT22;41083;52.932;6.674;2024-01-30T00:50:06;6.90;99.90
55213;DHT22;41083;52.932;6.674;2024-01-30T00:52:32;6.90;99.90
55213;DHT22;41083;52.932;6.674;2024-01-30T00:54:59;6.90;99.90
55213;DHT22;41083;52.932;6.674;2024-01-30T00:57:24;6.90;99.90
55213;DHT22;41083;52.932;6.674;2024-01-30T00:59:50;6.90;99.90
55213;DHT22;41083;52.932;6.674;2024-01-30T01:02:16;6.90;99.90
55213;DHT22;41083;52.932;6.674;2024-01-30T01:04:43;6.90;99.90
55213;DHT22;41083;52.932;6.674;2024-01-30T01:07:10;6.90;99.90
55213;DHT22;41083;52.932;6.674;2024-01-30T01:09:36;6.90;99.90
55213;DHT22;41083;52.932;6.674;2024-01-30T01:12:02;6.90;99.90
55213;DHT22;41083;52.932;6.674;2024-01-30T01:14:27;6.90;99.90
55213;DHT22;41083;52.932;6.674;2024-01-30T01:16:53;6.80;99.90
55213;DHT22;41083;52.932;6.674;2024-01-30T01:19:19;6.80;99.90
55213;DHT22;41083;52.932;6.674;2024-01-30T01:21:44;6.80;99.90
55213;DHT22;41083;52.932;6.674;2024-01-30T01:24:10;6.80;99.90
55213;DHT22;41083;52.932;6.674;2024-01-30T01:26:36;6.80;99.90
55213;DHT22;41083;52.932;6.674;2024-01-30T01:29:01;6.80;99.90
55213;DHT22;41083;52.932;6.674;2024-01-30T01:31:29;6.80;99.90
55213;DHT22;41083;52.932;6.674;2024-01-30T01:33:55;6.80;99.90
55213;DHT22;41083;52.932;6.674;2024-01-30T01:36:21;6.80;99.90
55213;DHT22;41083;52.932;6.674;2024-01-30T01:38:46;6.80;99.90
55213;DHT22;41083;52.932;6.674;2024-01-30T01:41:12;6.80;99.90
55213;DHT22;41083;52.932;6.674;2024-01-30T01:43:38;6.80;99.90
55213;DHT22;41083;52.932;6.674;2024-01-30T01:46:06;6.80;99.90
55213;DHT22;41083;52.932;6.674;2024-01-30T01:48:32;6.80;99.90
55213;DHT22;41083;52.932;6.674;2024-01-30T01:50:59;6.80;99.90
55213;DHT22;41083;52.932;6.674;2024-01-30T01:53:25;6.80;99.90
55213;DHT22;41083;52.932;6.674;2024-01-30T01:55:51;6.80;99.90
55213;DHT22;41083;52.932;6.674;2024-01-30T01:58:19;6.80;99.90
55213;DHT22;41083;52.932;6.674;2024-01-30T02:00:47;6.80;99.90
55213;DHT22;41083;52.932;6.674;2024-01-30T02:03:14;6.80;99.90
55213;DHT22;41083;52.932;6.674;2024-01-30T02:05:42;6.80;99.90
55213;DHT22;41083;52.932;6.674;2024-01-30T02:08:08;6.80;99.90
55213;DHT22;41083;52.932;6.674;2024-01-30T02:10:34;6.80;99.90
55213;DHT22;41083;52.932;6.674;2024-01-30T02:12:59;6.80;99.90
55213;DHT22;41083;52.932;6.674;2024-01-30T02:15:25;6.80;99.90
55213;DHT22;41083;52.932;6.674;2024-01-30T02:17:51;6.80;99.90
55213;DHT22;41083;52.932;6.674;2024-01-30T02:20:16;6.80;99.90
55213;DHT22;41083;52.932;6.674;2024-01-30T02:22:42;6.80;99.90
55213;DHT22;41083;52.932;6.674;2024-01-30T02:25:08;6.90;99.90
55213;DHT22;41083;52.932;6.674;2024-01-30T02:27:34;6.80;99.90
55213;DHT22;41083;52.932;6.674;2024-01-30T02:30:00;6.80;99.90
55213;DHT22;41083;52.932;6.674;2024-01-30T02:32:25;6.80;99.90
55213;DHT22;41083;52.932;6.674;2024-01-30T02:34:51;6.80;99.90
55213;DHT22;41083;52.932;6.674;2024-01-30T02:37:17;6.90;99.90
55213;DHT22;41083;52.932;6.674;2024-01-30T02:39:42;6.90;99.90
55213;DHT22;41083;52.932;6.674;2024-01-30T02:42:08;6.90;99.90
55213;DHT22;41083;52.932;6.674;2024-01-30T02:44:34;6.90;99.90
55213;DHT22;41083;52.932;6.674;2024-01-30T02:46:59;6.80;99.90
55213;DHT22;41083;52.932;6.674;2024-01-30T02:49:25;6.80;99.90
55213;DHT22;41083;52.932;6.674;2024-01-30T02:51:52;6.80;99.90
55213;DHT22;41083;52.932;6.674;2024-01-30T02:54:18;6.80;99.90
55213;DHT22;41083;52.932;6.674;2024-01-30T02:56:43;6.80;99.90
55213;DHT22;41083;52.932;6.674;2024-01-30T02:59:09;6.80;99.90
55213;DHT22;41083;52.932;6.674;2024-01-30T03:01:45;6.80;99.90
55213;DHT22;41083;52.932;6.674;2024-01-30T03:04:11;6.80;99.90
55213;DHT22;41083;52.932;6.674;2024-01-30T03:06:37;6.80;99.90
55213;DHT22;41083;52.932;6.674;2024-01-30T03:09:03;6.80;99.90
55213;DHT22;41083;52.932;6.674;2024-01-30T03:11:30;6.80;99.90
55213;DHT22;41083;52.932;6.674;2024-01-30T03:13:56;6.80;99.90
55213;DHT22;41083;52.932;6.674;2024-01-30T03:16:21;6.80;99.90
55213;DHT22;41083;52.932;6.674;2024-01-30T03:18:47;6.80;99.90
55213;DHT22;41083;52.932;6.674;2024-01-30T03:21:14;6.80;99.90
55213;DHT22;41083;52.932;6.674;2024-01-30T03:23:39;6.80;99.90
55213;DHT22;41083;52.932;6.674;2024-01-30T03:26:05;6.80;99.90
55213;DHT22;41083;52.932;6.674;2024-01-30T03:28:32;6.80;99.90
55213;DHT22;41083;52.932;6.674;2024-01-30T03:30:57;6.80;99.90
55213;DHT22;41083;52.932;6.674;2024-01-30T03:33:23;6.80;99.90
55213;DHT22;41083;52.932;6.674;2024-01-30T03:35:49;6.80;99.90
55213;DHT22;41083;52.932;6.674;2024-01-30T03:38:14;6.80;99.90
55213;DHT22;41083;52.932;6.674;2024-01-30T03:40:40;6.80;99.90
55213;DHT22;41083;52.932;6.674;2024-01-30T03:43:05;6.90;99.90
55213;DHT22;41083;52.932;6.674;2024-01-30T03:45:31;6.80;99.90
55213;DHT22;41083;52.932;6.674;2024-01-30T03:47:57;6.90;99.90
55213;DHT22;41083;52.932;6.674;2024-01-30T03:50:22;6.90;99.90
55213;DHT22;41083;52.932;6.674;2024-01-30T03:52:48;6.90;99.90
55213;DHT22;41083;52.932;6.674;2024-01-30T03:55:14;6.90;99.90
55213;DHT22;41083;52.932;6.674;2024-01-30T03:57:39;6.90;99.90
55213;DHT22;41083;52.932;6.674;2024-01-30T04:00:05;6.90;99.90
55213;DHT22;41083;52.932;6.674;2024-01-30T04:02:31;6.90;99.90
55213;DHT22;41083;52.932;6.674;2024-01-30T04:04:57;6.90;99.90
55213;DHT22;41083;52.932;6.674;2024-01-30T04:07:22;6.90;99.90
55213;DHT22;41083;52.932;6.674;2024-01-30T04:09:48;7.00;99.90
55213;DHT22;41083;52.932;6.674;2024-01-30T04:12:13;6.90;99.90
55213;DHT22;41083;52.932;6.674;2024-01-30T04:14:39;6.90;99.90
55213;DHT22;41083;52.932;6.674;2024-01-30T04:17:05;6.90;99.90
55213;DHT22;41083;52.932;6.674;2024-01-30T04:19:30;7.00;99.90
55213;DHT22;41083;52.932;6.674;2024-01-30T04:21:56;7.00;99.90
55213;DHT22;41083;52.932;6.674;2024-01-30T04:24:22;7.00;99.90
55213;DHT22;41083;52.932;6.674;2024-01-30T04:26:47;7.00;99.90
55213;DHT22;41083;52.932;6.674;2024-01-30T04:29:13;7.00;99.90
55213;DHT22;41083;52.932;6.674;2024-01-30T04:31:38;7.00;99.90
55213;DHT22;41083;52.932;6.674;2024-01-30T04:34:04;7.10;99.90
55213;DHT22;41083;52.932;6.674;2024-01-30T04:36:29;7.10;99.90
55213;DHT22;41083;52.932;6.674;2024-01-30T04:38:55;7.10;99.90
55213;DHT22;41083;52.932;6.674;2024-01-30T04:41:21;7.10;99.90
55213;DHT22;41083;52.932;6.674;2024-01-30T04:43:46;7.10;99.90
55213;DHT22;41083;52.932;6.674;2024-01-30T04:46:12;7.10;99.90
55213;DHT22;41083;52.932;6.674;2024-01-30T04:48:37;7.10;99.90
55213;DHT22;41083;52.932;6.674;2024-01-30T04:51:03;7.10;99.90
55213;DHT22;41083;52.932;6.674;2024-01-30T04:53:30;7.10;99.90
55213;DHT22;41083;52.932;6.674;2024-01-30T04:55:56;7.10;99.90
55213;DHT22;41083;52.932;6.674;2024-01-30T04:58:22;7.20;99.90
55213;DHT22;41083;52.932;6.674;2024-01-30T05:00:47;7.20;99.90
55213;DHT22;41083;52.932;6.674;2024-01-30T05:03:18;7.20;99.90
55213;DHT22;41083;52.932;6.674;2024-01-30T05:05:43;7.20;99.90
55213;DHT22;41083;52.932;6.674;2024-01-30T05:08:09;7.20;99.90
55213;DHT22;41083;52.932;6.674;2024-01-30T05:10:35;7.20;99.90
55213;DHT22;41083;52.932;6.674;2024-01-30T05:13:00;7.20;99.90
55213;DHT22;41083;52.932;6.674;2024-01-30T05:15:26;7.20;99.90
55213;DHT22;41083;52.932;6.674;2024-01-30T05:17:51;7.20;99.90
55213;DHT22;41083;52.932;6.674;2024-01-30T05:20:17;7.20;99.90
55213;DHT22;41083;52.932;6.674;2024-01-30T05:22:43;7.20;99.90
55213;DHT22;41083;52.932;6.674;2024-01-30T05:25:13;7.20;99.90
55213;DHT22;41083;52.932;6.674;2024-01-30T05:27:39;7.20;99.90
55213;DHT22;41083;52.932;6.674;2024-01-30T05:30:06;7.20;99.90
55213;DHT22;41083;52.932;6.674;2024-01-30T05:32:32;7.20;99.90
55213;DHT22;41083;52.932;6.674;2024-01-30T05:34:58;7.20;99.90
55213;DHT22;41083;52.932;6.674;2024-01-30T05:37:23;7.20;99.90
55213;DHT22;41083;52.932;6.674;2024-01-30T05:39:49;7.20;99.90
55213;DHT22;41083;52.932;6.674;2024-01-30T05:42:15;7.30;99.90
55213;DHT22;41083;52.932;6.674;2024-01-30T05:44:42;7.30;99.90
55213;DHT22;41083;52.932;6.674;2024-01-30T05:47:08;7.30;99.90
55213;DHT22;41083;52.932;6.674;2024-01-30T05:49:34;7.30;99.90
55213;DHT22;41083;52.932;6.674;2024-01-30T05:52:01;7.30;99.90
55213;DHT22;41083;52.932;6.674;2024-01-30T05:54:27;7.30;99.90
55213;DHT22;41083;52.932;6.674;2024-01-30T05:56:53;7.30;99.90
55213;DHT22;41083;52.932;6.674;2024-01-30T05:59:18;7.30;99.90
55213;DHT22;41083;52.932;6.674;2024-01-30T06:01:47;7.40;99.90
55213;DHT22;41083;52.932;6.674;2024-01-30T06:04:14;7.40;99.90
55213;DHT22;41083;52.932;6.674;2024-01-30T06:06:40;7.40;99.90
55213;DHT22;41083;52.932;6.674;2024-01-30T06:09:06;7.40;99.90
55213;DHT22;41083;52.932;6.674;2024-01-30T06:11:32;7.40;99.90
55213;DHT22;41083;52.932;6.674;2024-01-30T06:13:57;7.40;99.90
55213;DHT22;41083;52.932;6.674;2024-01-30T06:16:23;7.40;99.90
55213;DHT22;41083;52.932;6.674;2024-01-30T06:18:48;7.40;99.90
55213;DHT22;41083;52.932;6.674;2024-01-30T06:21:14;7.50;99.90
55213;DHT22;41083;52.932;6.674;2024-01-30T06:23:40;7.50;99.90
55213;DHT22;41083;52.932;6.674;2024-01-30T06:26:06;7.40;99.90
55213;DHT22;41083;52.932;6.674;2024-01-30T06:28:32;7.50;99.90
55213;DHT22;41083;52.932;6.674;2024-01-30T06:30:58;7.40;99.90
55213;DHT22;41083;52.932;6.674;2024-01-30T06:33:23;7.50;99.90
55213;DHT22;41083;52.932;6.674;2024-01-30T06:35:49;7.40;99.90
55213;DHT22;41083;52.932;6.674;2024-01-30T06:38:14;7.40;99.90
55213;DHT22;41083;52.932;6.674;2024-01-30T06:40:41;7.40;99.90
55213;DHT22;41083;52.932;6.674;2024-01-30T06:43:07;7.40;99.90
55213;DHT22;41083;52.932;6.674;2024-01-30T06:45:33;7.40;99.90
55213;DHT22;41083;52.932;6.674;2024-01-30T06:48:00;7.40;99.90
55213;DHT22;41083;52.932;6.674;2024-01-30T06:50:26;7.50;99.90
55213;DHT22;41083;52.932;6.674;2024-01-30T06:52:51;7.40;99.90
55213;DHT22;41083;52.932;6.674;2024-01-30T06:55:18;7.50;99.90
55213;DHT22;41083;52.932;6.674;2024-01-30T06:57:43;7.40;99.90
55213;DHT22;41083;52.932;6.674;2024-01-30T07:00:10;7.50;99.90
55213;DHT22;41083;52.932;6.674;2024-01-30T07:02:35;7.50;99.90
55213;DHT22;41083;52.932;6.674;2024-01-30T07:05:02;7.50;99.90
55213;DHT22;41083;52.932;6.674;2024-01-30T07:07:28;7.50;99.90
55213;DHT22;41083;52.932;6.674;2024-01-30T07:09:54;7.50;99.90
55213;DHT22;41083;52.932;6.674;2024-01-30T07:12:22;7.50;99.90
55213;DHT22;41083;52.932;6.674;2024-01-30T07:14:50;7.50;99.90
55213;DHT22;41083;52.932;6.674;2024-01-30T07:17:16;7.50;99.90
55213;DHT22;41083;52.932;6.674;2024-01-30T07:19:41;7.50;99.90
55213;DHT22;41083;52.932;6.674;2024-01-30T07:22:08;7.50;99.90
55213;DHT22;41083;52.932;6.674;2024-01-30T07:24:34;7.50;99.90
55213;DHT22;41083;52.932;6.674;2024-01-30T07:26:59;7.50;99.90
55213;DHT22;41083;52.932;6.674;2024-01-30T07:29:25;7.50;99.90
55213;DHT22;41083;52.932;6.674;2024-01-30T07:31:51;7.50;99.90
55213;DHT22;41083;52.932;6.674;2024-01-30T07:34:16;7.60;99.90
55213;DHT22;41083;52.932;6.674;2024-01-30T07:36:42;7.60;99.90
55213;DHT22;41083;52.932;6.674;2024-01-30T07:39:08;7.50;99.90
55213;DHT22;41083;52.932;6.674;2024-01-30T07:41:33;7.60;99.90
55213;DHT22;41083;52.932;6.674;2024-01-30T07:43:59;7.60;99.90
55213;DHT22;41083;52.932;6.674;2024-01-30T07:46:25;7.60;99.90
55213;DHT22;41083;52.932;6.674;2024-01-30T07:48:50;7.60;99.90
55213;DHT22;41083;52.932;6.674;2024-01-30T07:51:16;7.60;99.90
55213;DHT22;41083;52.932;6.674;2024-01-30T07:53:42;7.60;99.90
55213;DHT22;41083;52.932;6.674;2024-01-30T07:56:07;7.60;99.90
55213;DHT22;41083;52.932;6.674;2024-01-30T07:58:33;7.60;99.90
55213;DHT22;41083;52.932;6.674;2024-01-30T08:00:59;7.60;99.90
55213;DHT22;41083;52.932;6.674;2024-01-30T08:03:25;7.60;99.90
55213;DHT22;41083;52.932;6.674;2024-01-30T08:05:51;7.60;99.90
55213;DHT22;41083;52.932;6.674;2024-01-30T08:08:17;7.60;99.90
55213;DHT22;41083;52.932;6.674;2024-01-30T08:10:43;7.60;99.90
55213;DHT22;41083;52.932;6.674;2024-01-30T08:13:08;7.60;99.90
55213;DHT22;41083;52.932;6.674;2024-01-30T08:15:34;7.60;99.90
55213;DHT22;41083;52.932;6.674;2024-01-30T08:18:00;7.60;99.90
55213;DHT22;41083;52.932;6.674;2024-01-30T08:20:26;7.70;99.90
55213;DHT22;41083;52.932;6.674;2024-01-30T08:22:52;7.70;99.90
55213;DHT22;41083;52.932;6.674;2024-01-30T08:25:18;7.70;99.90
55213;DHT22;41083;52.932;6.674;2024-01-30T08:27:44;7.70;99.90
55213;DHT22;41083;52.932;6.674;2024-01-30T08:30:10;7.70;99.90
55213;DHT22;41083;52.932;6.674;2024-01-30T08:32:36;7.70;99.90
55213;DHT22;41083;52.932;6.674;2024-01-30T08:35:02;7.70;99.90
55213;DHT22;41083;52.932;6.674;2024-01-30T08:37:30;7.80;99.90
55213;DHT22;41083;52.932;6.674;2024-01-30T08:39:56;7.80;99.90
55213;DHT22;41083;52.932;6.674;2024-01-30T08:42:22;7.80;99.90
55213;DHT22;41083;52.932;6.674;2024-01-30T08:44:49;7.90;99.90
55213;DHT22;41083;52.932;6.674;2024-01-30T08:47:16;7.90;99.90
55213;DHT22;41083;52.932;6.674;2024-01-30T08:49:43;7.90;99.90
55213;DHT22;41083;52.932;6.674;2024-01-30T08:52:10;8.00;99.90
55213;DHT22;41083;52.932;6.674;2024-01-30T08:54:36;8.00;99.90
55213;DHT22;41083;52.932;6.674;2024-01-30T08:57:01;8.00;99.90
55213;DHT22;41083;52.932;6.674;2024-01-30T08:59:27;8.10;99.90
55213;DHT22;41083;52.932;6.674;2024-01-30T09:01:53;8.10;99.90
55213;DHT22;41083;52.932;6.674;2024-01-30T09:04:21;8.10;99.90
55213;DHT22;41083;52.932;6.674;2024-01-30T09:06:48;8.10;99.90
55213;DHT22;41083;52.932;6.674;2024-01-30T09:09:14;8.10;99.90
55213;DHT22;41083;52.932;6.674;2024-01-30T09:11:40;8.20;99.90
55213;DHT22;41083;52.932;6.674;2024-01-30T09:14:05;8.20;99.90
55213;DHT22;41083;52.932;6.674;2024-01-30T09:16:31;8.20;99.90
55213;DHT22;41083;52.932;6.674;2024-01-30T09:18:57;8.20;99.90
55213;DHT22;41083;52.932;6.674;2024-01-30T09:21:22;8.30;99.90
55213;DHT22;41083;52.932;6.674;2024-01-30T09:23:48;8.30;99.90
55213;DHT22;41083;52.932;6.674;2024-01-30T09:26:14;8.30;99.90
55213;DHT22;41083;52.932;6.674;2024-01-30T09:28:40;8.30;99.90
55213;DHT22;41083;52.932;6.674;2024-01-30T09:31:11;8.40;99.90
55213;DHT22;41083;52.932;6.674;2024-01-30T09:33:38;8.40;99.90
55213;DHT22;41083;52.932;6.674;2024-01-30T09:36:05;8.50;99.90
55213;DHT22;41083;52.932;6.674;2024-01-30T09:38:31;8.50;99.90
55213;DHT22;41083;52.932;6.674;2024-01-30T09:41:00;8.50;99.90
55213;DHT22;41083;52.932;6.674;2024-01-30T09:43:31;8.50;99.90
55213;DHT22;41083;52.932;6.674;2024-01-30T09:45:59;8.60;99.90
55213;DHT22;41083;52.932;6.674;2024-01-30T09:48:25;8.60;99.90
55213;DHT22;41083;52.932;6.674;2024-01-30T09:50:52;8.60;99.90
55213;DHT22;41083;52.932;6.674;2024-01-30T09:53:19;8.70;99.90
55213;DHT22;41083;52.932;6.674;2024-01-30T09:55:45;8.70;99.90
55213;DHT22;41083;52.932;6.674;2024-01-30T09:58:12;8.70;99.90
55213;DHT22;41083;52.932;6.674;2024-01-30T10:00:39;8.80;99.90
55213;DHT22;41083;52.932;6.674;2024-01-30T10:03:04;8.80;99.90
55213;DHT22;41083;52.932;6.674;2024-01-30T10:05:31;8.80;99.90
55213;DHT22;41083;52.932;6.674;2024-01-30T10:07:59;8.90;99.90
55213;DHT22;41083;52.932;6.674;2024-01-30T10:10:25;9.00;99.90
55213;DHT22;41083;52.932;6.674;2024-01-30T10:12:51;9.00;99.90
55213;DHT22;41083;52.932;6.674;2024-01-30T10:15:18;9.00;99.90
55213;DHT22;41083;52.932;6.674;2024-01-30T10:17:44;9.00;99.90
55213;DHT22;41083;52.932;6.674;2024-01-30T10:20:11;9.10;99.90
55213;DHT22;41083;52.932;6.674;2024-01-30T10:22:37;9.10;99.90
55213;DHT22;41083;52.932;6.674;2024-01-30T10:25:02;9.10;99.90
55213;DHT22;41083;52.932;6.674;2024-01-30T10:27:29;9.10;99.90
55213;DHT22;41083;52.932;6.674;2024-01-30T10:29:55;9.20;99.90
55213;DHT22;41083;52.932;6.674;2024-01-30T10:32:21;9.20;99.90
55213;DHT22;41083;52.932;6.674;2024-01-30T10:34:47;9.20;99.90
55213;DHT22;41083;52.932;6.674;2024-01-30T10:37:12;9.20;99.90
55213;DHT22;41083;52.932;6.674;2024-01-30T10:39:42;9.30;99.90
55213;DHT22;41083;52.932;6.674;2024-01-30T10:42:13;9.30;99.90
55213;DHT22;41083;52.932;6.674;2024-01-30T10:47:12;9.40;99.90
55213;DHT22;41083;52.932;6.674;2024-01-30T10:49:41;9.40;99.90
55213;DHT22;41083;52.932;6.674;2024-01-30T10:52:09;9.40;99.90
55213;DHT22;41083;52.932;6.674;2024-01-30T10:54:36;9.50;99.90
55213;DHT22;41083;52.932;6.674;2024-01-30T10:57:03;9.50;99.90
55213;DHT22;41083;52.932;6.674;2024-01-30T10:59:31;9.50;99.90
55213;DHT22;41083;52.932;6.674;2024-01-30T11:01:58;9.50;99.90
55213;DHT22;41083;52.932;6.674;2024-01-30T11:04:24;9.50;99.90
55213;DHT22;41083;52.932;6.674;2024-01-30T11:06:51;9.50;99.90
55213;DHT22;41083;52.932;6.674;2024-01-30T11:09:17;9.50;99.90
55213;DHT22;41083;52.932;6.674;2024-01-30T11:11:59;9.60;99.90
55213;DHT22;41083;52.932;6.674;2024-01-30T11:14:30;9.60;99.90
55213;DHT22;41083;52.932;6.674;2024-01-30T11:16:59;9.60;99.90
55213;DHT22;41083;52.932;6.674;2024-01-30T11:19:25;9.60;99.90
55213;DHT22;41083;52.932;6.674;2024-01-30T11:21:52;9.70;99.90
55213;DHT22;41083;52.932;6.674;2024-01-30T11:24:23;9.70;99.90
55213;DHT22;41083;52.932;6.674;2024-01-30T11:26:54;9.70;99.90
55213;DHT22;41083;52.932;6.674;2024-01-30T11:29:27;9.70;99.90
55213;DHT22;41083;52.932;6.674;2024-01-30T11:31:58;9.70;99.90
55213;DHT22;41083;52.932;6.674;2024-01-30T11:34:24;9.70;99.90
55213;DHT22;41083;52.932;6.674;2024-01-30T11:36:57;9.70;99.90
55213;DHT22;41083;52.932;6.674;2024-01-30T11:39:28;9.70;99.90
55213;DHT22;41083;52.932;6.674;2024-01-30T11:41:55;9.70;99.90
55213;DHT22;41083;52.932;6.674;2024-01-30T11:44:21;9.70;99.90
55213;DHT22;41083;52.932;6.674;2024-01-30T11:46:48;9.70;99.90
55213;DHT22;41083;52.932;6.674;2024-01-30T11:49:14;9.70;99.90
55213;DHT22;41083;52.932;6.674;2024-01-30T11:51:40;9.80;99.90
55213;DHT22;41083;52.932;6.674;2024-01-30T11:54:05;9.80;99.90
55213;DHT22;41083;52.932;6.674;2024-01-30T11:56:32;9.90;99.90
55213;DHT22;41083;52.932;6.674;2024-01-30T11:58:58;9.90;99.90
55213;DHT22;41083;52.932;6.674;2024-01-30T12:01:26;10.00;99.90
55213;DHT22;41083;52.932;6.674;2024-01-30T12:03:52;10.00;99.90
55213;DHT22;41083;52.932;6.674;2024-01-30T12:06:17;10.00;99.90
55213;DHT22;41083;52.932;6.674;2024-01-30T12:08:57;10.10;99.90
55213;DHT22;41083;52.932;6.674;2024-01-30T12:11:24;10.10;99.90
55213;DHT22;41083;52.932;6.674;2024-01-30T12:13:51;10.10;99.90
55213;DHT22;41083;52.932;6.674;2024-01-30T12:16:17;10.10;99.90
55213;DHT22;41083;52.932;6.674;2024-01-30T12:18:42;10.20;99.90
55213;DHT22;41083;52.932;6.674;2024-01-30T12:21:08;10.10;99.90
55213;DHT22;41083;52.932;6.674;2024-01-30T12:23:35;10.10;99.90
55213;DHT22;41083;52.932;6.674;2024-01-30T12:26:01;10.10;99.90
55213;DHT22;41083;52.932;6.674;2024-01-30T12:28:29;10.10;99.90
55213;DHT22;41083;52.932;6.674;2024-01-30T12:31:01;10.10;99.90
55213;DHT22;41083;52.932;6.674;2024-01-30T12:33:28;10.10;99.90
55213;DHT22;41083;52.932;6.674;2024-01-30T12:35:55;10.10;99.90
55213;DHT22;41083;52.932;6.674;2024-01-30T12:38:20;10.10;99.90
55213;DHT22;41083;52.932;6.674;2024-01-30T12:40:46;10.00;99.90
55213;DHT22;41083;52.932;6.674;2024-01-30T12:43:13;10.00;99.90
55213;DHT22;41083;52.932;6.674;2024-01-30T12:45:41;10.00;99.90
55213;DHT22;41083;52.932;6.674;2024-01-30T12:48:07;10.00;99.90
55213;DHT22;41083;52.932;6.674;2024-01-30T12:50:33;9.90;99.90
55213;DHT22;41083;52.932;6.674;2024-01-30T12:52:58;9.90;99.90
55213;DHT22;41083;52.932;6.674;2024-01-30T12:55:24;9.90;99.90
55213;DHT22;41083;52.932;6.674;2024-01-30T12:57:52;9.80;99.90
55213;DHT22;41083;52.932;6.674;2024-01-30T13:00:17;9.80;99.90
55213;DHT22;41083;52.932;6.674;2024-01-30T13:02:43;9.80;99.90
55213;DHT22;41083;52.932;6.674;2024-01-30T13:05:10;9.80;99.90
55213;DHT22;41083;52.932;6.674;2024-01-30T13:07:36;9.70;99.90
55213;DHT22;41083;52.932;6.674;2024-01-30T13:10:02;9.70;99.90
55213;DHT22;41083;52.932;6.674;2024-01-30T13:12:29;9.70;99.90
55213;DHT22;41083;52.932;6.674;2024-01-30T13:14:55;9.70;99.90
55213;DHT22;41083;52.932;6.674;2024-01-30T13:17:21;9.70;99.90
55213;DHT22;41083;52.932;6.674;2024-01-30T13:19:46;9.70;99.90
55213;DHT22;41083;52.932;6.674;2024-01-30T13:22:14;9.70;99.90
55213;DHT22;41083;52.932;6.674;2024-01-30T13:24:40;9.70;99.90
55213;DHT22;41083;52.932;6.674;2024-01-30T13:27:07;9.70;99.90
55213;DHT22;41083;52.932;6.674;2024-01-30T13:29:32;9.60;99.90
55213;DHT22;41083;52.932;6.674;2024-01-30T13:31:58;9.60;99.90
55213;DHT22;41083;52.932;6.674;2024-01-30T13:34:24;9.60;99.90
55213;DHT22;41083;52.932;6.674;2024-01-30T13:36:50;9.60;99.90
55213;DHT22;41083;52.932;6.674;2024-01-30T13:39:16;9.60;99.90
55213;DHT22;41083;52.932;6.674;2024-01-30T13:41:42;9.60;99.90
55213;DHT22;41083;52.932;6.674;2024-01-30T13:44:08;9.60;99.90
55213;DHT22;41083;52.932;6.674;2024-01-30T13:46:35;9.60;99.90
55213;DHT22;41083;52.932;6.674;2024-01-30T13:49:01;9.50;99.90
55213;DHT22;41083;52.932;6.674;2024-01-30T13:51:27;9.50;99.90
55213;DHT22;41083;52.932;6.674;2024-01-30T13:53:53;9.50;99.90
55213;DHT22;41083;52.932;6.674;2024-01-30T13:56:20;9.50;99.90
55213;DHT22;41083;52.932;6.674;2024-01-30T13:58:47;9.50;99.90
55213;DHT22;41083;52.932;6.674;2024-01-30T14:01:13;9.50;99.90
55213;DHT22;41083;52.932;6.674;2024-01-30T14:03:39;9.50;99.90
55213;DHT22;41083;52.932;6.674;2024-01-30T14:06:04;9.50;99.90
55213;DHT22;41083;52.932;6.674;2024-01-30T14:08:31;9.50;99.90
55213;DHT22;41083;52.932;6.674;2024-01-30T14:10:57;9.50;99.90
55213;DHT22;41083;52.932;6.674;2024-01-30T14:13:22;9.50;99.90
55213;DHT22;41083;52.932;6.674;2024-01-30T14:15:49;9.50;99.90
55213;DHT22;41083;52.932;6.674;2024-01-30T14:18:15;9.50;99.90
55213;DHT22;41083;52.932;6.674;2024-01-30T14:20:41;9.50;99.90
55213;DHT22;41083;52.932;6.674;2024-01-30T14:23:06;9.50;99.90
55213;DHT22;41083;52.932;6.674;2024-01-30T14:25:32;9.50;99.90
55213;DHT22;41083;52.932;6.674;2024-01-30T14:27:58;9.50;99.90
55213;DHT22;41083;52.932;6.674;2024-01-30T14:30:23;9.50;99.90
55213;DHT22;41083;52.932;6.674;2024-01-30T14:32:49;9.50;99.90
55213;DHT22;41083;52.932;6.674;2024-01-30T14:35:15;9.50;99.90
55213;DHT22;41083;52.932;6.674;2024-01-30T14:37:41;9.40;99.90
55213;DHT22;41083;52.932;6.674;2024-01-30T14:40:07;9.40;99.90
55213;DHT22;41083;52.932;6.674;2024-01-30T14:42:33;9.40;99.90
55213;DHT22;41083;52.932;6.674;2024-01-30T14:44:59;9.30;99.90
55213;DHT22;41083;52.932;6.674;2024-01-30T14:47:25;9.30;99.90
55213;DHT22;41083;52.932;6.674;2024-01-30T14:49:51;9.20;99.90
55213;DHT22;41083;52.932;6.674;2024-01-30T14:52:18;9.30;99.90
55213;DHT22;41083;52.932;6.674;2024-01-30T14:54:43;9.20;99.90
55213;DHT22;41083;52.932;6.674;2024-01-30T14:57:09;9.20;99.90
55213;DHT22;41083;52.932;6.674;2024-01-30T14:59:36;9.20;99.90
55213;DHT22;41083;52.932;6.674;2024-01-30T15:02:01;9.10;99.90
55213;DHT22;41083;52.932;6.674;2024-01-30T15:04:27;9.10;99.90
55213;DHT22;41083;52.932;6.674;2024-01-30T15:06:53;9.10;99.90
55213;DHT22;41083;52.932;6.674;2024-01-30T15:09:19;9.10;99.90
55213;DHT22;41083;52.932;6.674;2024-01-30T15:11:46;9.10;99.90
55213;DHT22;41083;52.932;6.674;2024-01-30T15:14:12;9.10;99.90
55213;DHT22;41083;52.932;6.674;2024-01-30T15:16:39;9.10;99.90
55213;DHT22;41083;52.932;6.674;2024-01-30T15:19:04;9.10;99.90
55213;DHT22;41083;52.932;6.674;2024-01-30T15:21:31;9.00;99.90
55213;DHT22;41083;52.932;6.674;2024-01-30T15:23:57;9.00;99.90
55213;DHT22;41083;52.932;6.674;2024-01-30T15:26:22;9.00;99.90
55213;DHT22;41083;52.932;6.674;2024-01-30T15:28:48;8.90;99.90
55213;DHT22;41083;52.932;6.674;2024-01-30T15:31:14;8.90;99.90
55213;DHT22;41083;52.932;6.674;2024-01-30T15:33:39;8.90;99.90
55213;DHT22;41083;52.932;6.674;2024-01-30T15:36:05;8.90;99.90
55213;DHT22;41083;52.932;6.674;2024-01-30T15:38:31;8.80;99.90
55213;DHT22;41083;52.932;6.674;2024-01-30T15:40:57;8.80;99.90